createdAt,value
2023-04-03T00:01:57.699Z,9.50
2023-04-03T00:04:34.170Z,9.50
2023-04-03T00:07:03.681Z,9.50
2023-04-03T00:09:32.756Z,9.40
2023-04-03T00:12:01.732Z,9.40
2023-04-03T00:14:30.895Z,9.40
2023-04-03T00:17:00.005Z,9.40
2023-04-03T00:19:29.120Z,9.40
2023-04-03T00:21:59.513Z,9.30
2023-04-03T00:24:28.665Z,9.30
2023-04-03T00:26:57.660Z,9.30
2023-04-03T00:29:26.778Z,9.30
2023-04-03T00:31:55.974Z,9.40
2023-04-03T00:34:25.083Z,9.40
2023-04-03T00:36:54.321Z,9.40
2023-04-03T00:39:25.001Z,9.40
2023-04-03T00:41:54.057Z,9.40
2023-04-03T00:44:25.080Z,9.40
2023-04-03T00:46:54.146Z,9.40
2023-04-03T00:49:24.244Z,9.40
2023-04-03T00:51:53.938Z,9.40
2023-04-03T00:54:24.674Z,9.50
2023-04-03T00:56:55.992Z,9.50
2023-04-03T00:59:27.546Z,9.50
2023-04-03T01:01:57.712Z,9.40
2023-04-03T01:04:30.845Z,9.40
2023-04-03T01:07:03.815Z,9.50
2023-04-03T01:09:35.712Z,9.50
2023-04-03T01:12:17.123Z,9.50
2023-04-03T01:14:47.216Z,9.40
2023-04-03T01:17:31.709Z,9.40
2023-04-03T01:20:37.868Z,9.40
2023-04-03T01:23:22.673Z,9.40
2023-04-03T01:25:55.371Z,9.40
2023-04-03T01:28:27.335Z,9.40
2023-04-03T01:31:04.739Z,9.40
2023-04-03T01:33:38.009Z,9.40
2023-04-03T01:36:08.343Z,9.50
2023-04-03T01:38:37.395Z,9.50
2023-04-03T01:41:06.471Z,9.50
2023-04-03T01:43:35.698Z,9.50
2023-04-03T01:46:05.025Z,9.60
2023-04-03T01:48:34.195Z,9.60
2023-04-03T01:51:04.850Z,9.60
2023-04-03T01:53:34.087Z,9.70
2023-04-03T01:56:03.148Z,9.70
2023-04-03T01:58:34.601Z,9.70
2023-04-03T02:01:04.089Z,9.70
2023-04-03T02:03:33.181Z,9.70
2023-04-03T02:06:03.026Z,9.80
2023-04-03T02:08:33.461Z,9.70
2023-04-03T02:11:02.755Z,9.80
2023-04-03T02:13:31.917Z,9.70
2023-04-03T02:16:01.395Z,9.80
2023-04-03T02:18:30.547Z,9.80
2023-04-03T02:20:59.608Z,9.80
2023-04-03T02:23:29.298Z,9.80
2023-04-03T02:26:10.501Z,9.80
2023-04-03T02:28:40.153Z,9.80
2023-04-03T02:31:09.828Z,9.80
2023-04-03T02:33:43.270Z,9.80
2023-04-03T02:36:14.631Z,9.80
2023-04-03T02:38:47.495Z,9.80
2023-04-03T02:41:18.142Z,9.90
2023-04-03T02:43:47.192Z,9.90
2023-04-03T02:46:16.769Z,9.90
2023-04-03T02:48:46.148Z,9.90
2023-04-03T02:51:15.356Z,9.80
2023-04-03T02:53:45.399Z,9.80
2023-04-03T02:56:21.338Z,9.90
2023-04-03T02:58:50.588Z,9.90
2023-04-03T03:01:21.182Z,9.90
2023-04-03T03:03:50.315Z,9.90
2023-04-03T03:06:19.951Z,9.90
2023-04-03T03:08:49.036Z,9.90
2023-04-03T03:11:18.252Z,9.90
2023-04-03T03:13:48.680Z,9.90
2023-04-03T03:16:17.718Z,9.90
2023-04-03T03:18:46.758Z,9.90
2023-04-03T03:21:16.322Z,9.90
2023-04-03T03:23:45.316Z,9.90
2023-04-03T03:26:14.355Z,9.90
2023-04-03T03:28:43.524Z,9.90
2023-04-03T03:31:16.428Z,9.90
2023-04-03T03:33:45.716Z,9.90
2023-04-03T03:36:14.880Z,9.90
2023-04-03T03:38:43.939Z,9.90
2023-04-03T03:41:12.952Z,9.90
2023-04-03T03:43:43.610Z,9.90
2023-04-03T03:46:13.475Z,9.90
2023-04-03T03:48:44.103Z,9.90
2023-04-03T03:51:13.568Z,9.90
2023-04-03T03:53:42.815Z,10.00
2023-04-03T03:56:16.336Z,9.90
2023-04-03T03:58:47.207Z,9.90
2023-04-03T04:01:17.889Z,9.90
2023-04-03T04:03:55.112Z,9.90
2023-04-03T04:06:28.727Z,9.90
2023-04-03T04:09:01.392Z,10.00
2023-04-03T04:11:31.337Z,9.90
2023-04-03T04:14:00.497Z,9.90
2023-04-03T04:16:31.522Z,9.90
2023-04-03T04:19:08.876Z,9.90
2023-04-03T04:21:40.311Z,10.00
2023-04-03T04:24:10.962Z,10.00
2023-04-03T04:26:42.465Z,10.00
2023-04-03T04:29:14.785Z,10.00
2023-04-03T04:31:43.784Z,10.00
2023-04-03T04:34:14.462Z,10.00
2023-04-03T04:36:43.912Z,10.10
2023-04-03T04:39:13.090Z,10.10
2023-04-03T04:41:42.838Z,10.10
2023-04-03T04:44:12.608Z,10.10
2023-04-03T04:46:42.266Z,10.00
2023-04-03T04:49:13.466Z,10.00
2023-04-03T04:51:51.472Z,10.00
2023-04-03T04:54:24.768Z,10.00
2023-04-03T04:56:54.907Z,10.00
2023-04-03T04:59:24.136Z,10.10
2023-04-03T05:01:55.838Z,10.00
2023-04-03T05:04:26.441Z,10.10
2023-04-03T05:07:01.616Z,10.00
2023-04-03T05:09:33.325Z,10.10
2023-04-03T05:12:04.007Z,10.00
2023-04-03T05:14:39.598Z,10.10
2023-04-03T05:17:11.277Z,10.10
2023-04-03T05:19:45.017Z,10.10
2023-04-03T05:22:15.082Z,10.10
2023-04-03T05:24:44.313Z,10.10
2023-04-03T05:27:13.949Z,10.10
2023-04-03T05:29:46.912Z,10.10
2023-04-03T05:32:21.342Z,10.20
2023-04-03T05:34:55.946Z,10.20
2023-04-03T05:37:25.043Z,10.20
2023-04-03T05:39:55.554Z,10.20
2023-04-03T05:42:25.581Z,10.20
2023-04-03T05:44:54.727Z,10.20
2023-04-03T05:47:23.979Z,10.20
2023-04-03T05:49:53.356Z,10.20
2023-04-03T05:52:27.749Z,10.20
2023-04-03T05:54:57.821Z,10.20
2023-04-03T05:57:30.398Z,10.20
2023-04-03T06:00:05.004Z,10.20
2023-04-03T06:02:43.333Z,10.20
2023-04-03T06:05:20.712Z,10.20
2023-04-03T06:07:55.037Z,10.20
2023-04-03T06:10:24.542Z,10.20
2023-04-03T06:12:53.837Z,10.20
2023-04-03T06:15:23.307Z,10.20
2023-04-03T06:17:52.463Z,10.20
2023-04-03T06:20:22.063Z,10.20
2023-04-03T06:22:52.138Z,10.20
2023-04-03T06:25:22.796Z,10.20
2023-04-03T06:27:52.348Z,10.20
2023-04-03T06:30:22.124Z,10.20
2023-04-03T06:32:51.562Z,10.20
2023-04-03T06:35:20.832Z,10.20
2023-04-03T06:37:49.847Z,10.20
2023-04-03T06:40:24.352Z,10.20
2023-04-03T06:42:53.746Z,10.20
2023-04-03T06:45:23.576Z,10.10
2023-04-03T06:47:52.587Z,10.10
2023-04-03T06:50:22.174Z,10.10
2023-04-03T06:52:51.528Z,10.10
2023-04-03T06:55:20.956Z,10.10
2023-04-03T06:57:52.009Z,10.10
2023-04-03T07:00:24.377Z,10.10
2023-04-03T07:02:56.298Z,10.10
2023-04-03T07:05:26.088Z,10.20
2023-04-03T07:07:55.618Z,10.30
2023-04-03T07:10:24.816Z,10.40
2023-04-03T07:12:55.465Z,10.50
2023-04-03T07:15:25.890Z,10.60
2023-04-03T07:17:55.139Z,10.70
2023-04-03T07:20:24.782Z,10.80
2023-04-03T07:22:54.406Z,10.80
2023-04-03T07:25:24.011Z,10.90
2023-04-03T07:27:55.561Z,10.80
2023-04-03T07:30:24.800Z,10.80
2023-04-03T07:32:54.240Z,10.80
2023-04-03T07:35:24.273Z,10.70
2023-04-03T07:37:54.796Z,10.70
2023-04-03T07:40:24.227Z,10.70
2023-04-03T07:42:56.481Z,10.80
2023-04-03T07:45:26.214Z,10.80
2023-04-03T07:47:56.163Z,10.90
2023-04-03T07:50:26.127Z,11.00
2023-04-03T07:52:57.487Z,11.20
2023-04-03T07:55:27.115Z,11.50
2023-04-03T07:57:59.263Z,11.70
2023-04-03T08:00:28.543Z,11.80
2023-04-03T08:02:58.150Z,11.90
2023-04-03T08:05:27.565Z,11.90
2023-04-03T08:07:56.946Z,12.10
2023-04-03T08:10:26.061Z,12.10
2023-04-03T08:12:55.586Z,12.20
2023-04-03T08:15:29.107Z,12.20
2023-04-03T08:17:58.512Z,12.20
2023-04-03T08:20:27.814Z,12.20
2023-04-03T08:22:59.034Z,12.20
2023-04-03T08:25:31.011Z,12.20
2023-04-03T08:28:00.718Z,12.20
2023-04-03T08:30:32.222Z,12.10
2023-04-03T08:33:03.576Z,12.00
2023-04-03T08:35:37.629Z,11.90
2023-04-03T08:38:08.154Z,11.80
2023-04-03T08:40:38.206Z,11.90
2023-04-03T08:43:24.638Z,11.90
2023-04-03T08:46:03.348Z,11.80
2023-04-03T08:48:37.889Z,11.80
2023-04-03T08:51:13.432Z,11.90
2023-04-03T08:53:54.008Z,11.80
2023-04-03T08:56:24.634Z,11.80
2023-04-03T08:59:00.993Z,11.90
2023-04-03T09:01:39.431Z,11.90
2023-04-03T09:04:18.852Z,12.10
2023-04-03T09:06:52.907Z,12.20
2023-04-03T09:09:34.856Z,12.30
2023-04-03T09:12:16.937Z,12.30
2023-04-03T09:14:52.446Z,12.20
2023-04-03T09:17:35.754Z,12.10
2023-04-03T09:20:20.581Z,12.00
2023-04-03T09:22:55.085Z,12.00
2023-04-03T09:25:32.264Z,12.00
2023-04-03T09:28:03.793Z,11.90
2023-04-03T09:30:33.519Z,11.90
2023-04-03T09:33:05.269Z,11.90
2023-04-03T09:35:47.467Z,11.90
2023-04-03T09:38:20.694Z,11.90
2023-04-03T09:40:52.547Z,11.90
2023-04-03T09:43:26.065Z,11.90
2023-04-03T09:45:56.380Z,11.90
2023-04-03T09:48:29.430Z,11.90
2023-04-03T09:51:04.266Z,11.80
2023-04-03T09:53:36.473Z,11.80
2023-04-03T09:56:21.812Z,11.80
2023-04-03T09:58:52.711Z,11.80
2023-04-03T10:01:30.716Z,11.80
2023-04-03T10:04:11.025Z,11.70
2023-04-03T10:06:44.498Z,11.60
2023-04-03T10:09:22.731Z,11.60
2023-04-03T10:12:08.427Z,11.50
2023-04-03T10:14:39.072Z,11.50
2023-04-03T10:17:19.311Z,11.40
2023-04-03T10:19:54.743Z,11.40
2023-04-03T10:22:35.293Z,11.40
2023-04-03T10:25:13.732Z,11.30
2023-04-03T10:27:55.041Z,11.30
2023-04-03T10:30:36.968Z,11.30
2023-04-03T10:33:21.955Z,11.30
2023-04-03T10:36:04.260Z,11.30
2023-04-03T10:38:43.037Z,11.20
2023-04-03T10:41:20.111Z,11.20
2023-04-03T10:43:56.469Z,11.20
2023-04-03T10:46:33.560Z,11.20
2023-04-03T10:49:24.542Z,11.20
2023-04-03T10:52:08.485Z,11.20
2023-04-03T10:54:41.703Z,11.20
2023-04-03T10:57:13.886Z,11.20
2023-04-03T10:59:48.628Z,11.20
2023-04-03T11:02:25.282Z,11.20
2023-04-03T11:04:59.550Z,11.20
2023-04-03T11:07:34.688Z,11.20
2023-04-03T11:10:11.699Z,11.20
2023-04-03T11:12:47.146Z,11.30
2023-04-03T11:15:19.831Z,11.40
2023-04-03T11:17:54.370Z,11.40
2023-04-03T11:20:28.980Z,11.40
2023-04-03T11:23:05.041Z,11.40
2023-04-03T11:25:37.111Z,11.40
2023-04-03T11:28:08.067Z,11.50
2023-04-03T11:30:46.380Z,11.60
2023-04-03T11:33:29.438Z,11.60
2023-04-03T11:36:07.431Z,11.60
2023-04-03T11:38:47.352Z,11.70
2023-04-03T11:41:17.844Z,11.70
2023-04-03T11:43:59.930Z,11.80
2023-04-03T11:46:52.230Z,11.90
2023-04-03T11:49:54.747Z,11.90
2023-04-03T11:53:01.697Z,12.00
2023-04-03T11:56:01.278Z,12.10
2023-04-03T11:58:35.090Z,12.20
2023-04-03T12:01:10.715Z,12.20
2023-04-03T12:04:04.268Z,12.20
2023-04-03T12:07:16.588Z,12.20
2023-04-03T12:10:04.372Z,12.30
2023-04-03T12:12:41.474Z,12.30
2023-04-03T12:15:50.984Z,12.40
2023-04-03T12:18:59.549Z,12.40
2023-04-03T12:22:08.402Z,12.40
2023-04-03T12:24:40.248Z,12.40
2023-04-03T12:27:23.780Z,12.40
2023-04-03T12:30:07.936Z,12.50
2023-04-03T12:33:12.983Z,12.50
2023-04-03T12:35:51.405Z,12.60
2023-04-03T12:39:04.362Z,12.70
2023-04-03T12:41:40.661Z,12.60
2023-04-03T12:44:41.729Z,12.60
2023-04-03T12:47:25.096Z,12.50
2023-04-03T12:49:56.452Z,12.50
2023-04-03T12:52:34.400Z,12.50
2023-04-03T12:55:19.490Z,12.50
2023-04-03T12:57:48.772Z,12.50
2023-04-03T13:00:33.823Z,12.60
2023-04-03T13:03:07.944Z,12.60
2023-04-03T13:05:38.292Z,12.60
2023-04-03T13:08:16.302Z,12.50
2023-04-03T13:10:54.953Z,12.50
2023-04-03T13:13:27.442Z,12.40
2023-04-03T13:15:57.175Z,12.40
2023-04-03T13:18:35.988Z,12.40
2023-04-03T13:21:09.367Z,12.40
2023-04-03T13:23:42.589Z,12.40
2023-04-03T13:26:12.543Z,12.40
2023-04-03T13:28:43.013Z,12.30
2023-04-03T13:31:22.736Z,12.30
2023-04-03T13:34:00.154Z,12.30
2023-04-03T13:36:32.874Z,12.30
2023-04-03T13:39:09.774Z,12.20
2023-04-03T13:41:41.662Z,12.20
2023-04-03T13:44:31.249Z,12.20
2023-04-03T13:47:02.523Z,12.20
2023-04-03T13:49:37.207Z,12.20
2023-04-03T13:52:26.018Z,12.20
2023-04-03T13:54:58.238Z,12.30
2023-04-03T13:57:27.781Z,12.40
2023-04-03T13:59:57.233Z,12.40
2023-04-03T14:02:33.288Z,12.50
2023-04-03T14:05:09.391Z,12.60
2023-04-03T14:07:38.940Z,12.60
2023-04-03T14:10:08.872Z,12.60
2023-04-03T14:12:41.691Z,12.60
2023-04-03T14:15:20.185Z,12.60
2023-04-03T14:17:49.781Z,12.60
2023-04-03T14:20:22.816Z,12.70
2023-04-03T14:22:53.351Z,12.80
2023-04-03T14:25:24.577Z,12.80
2023-04-03T14:27:56.626Z,12.80
2023-04-03T14:30:27.941Z,12.80
2023-04-03T14:32:57.007Z,12.80
2023-04-03T14:35:30.953Z,12.80
2023-04-03T14:38:00.254Z,12.70
2023-04-03T14:40:30.214Z,12.70
2023-04-03T14:42:59.346Z,12.80
2023-04-03T14:45:28.998Z,12.80
2023-04-03T14:47:58.588Z,12.70
2023-04-03T14:50:29.645Z,12.70
2023-04-03T14:53:01.457Z,12.80
2023-04-03T14:55:30.744Z,12.70
2023-04-03T14:57:59.976Z,12.70
2023-04-03T15:00:29.274Z,12.70
2023-04-03T15:02:58.471Z,12.70
2023-04-03T15:05:29.290Z,12.70
2023-04-03T15:08:01.587Z,12.70
2023-04-03T15:10:32.927Z,12.70
2023-04-03T15:13:01.709Z,12.70
2023-04-03T15:15:32.228Z,12.70
2023-04-03T15:18:02.060Z,12.70
2023-04-03T15:20:34.260Z,12.70
2023-04-03T15:23:03.643Z,12.80
2023-04-03T15:25:33.535Z,12.90
2023-04-03T15:28:03.087Z,12.90
2023-04-03T15:30:32.304Z,12.90
2023-04-03T15:33:01.601Z,12.90
2023-04-03T15:35:32.203Z,12.80
2023-04-03T15:38:01.313Z,12.80
2023-04-03T15:40:30.385Z,12.70
2023-04-03T15:42:59.462Z,12.70
2023-04-03T15:45:31.836Z,12.70
2023-04-03T15:48:01.165Z,12.60
2023-04-03T15:50:30.443Z,12.60
2023-04-03T15:53:02.575Z,12.50
2023-04-03T15:55:33.671Z,12.50
2023-04-03T15:58:03.591Z,12.40
2023-04-03T16:00:34.153Z,12.30
2023-04-03T16:03:08.233Z,12.20
2023-04-03T16:05:38.780Z,12.10
2023-04-03T16:08:10.862Z,12.10
2023-04-03T16:10:41.543Z,12.00
2023-04-03T16:13:10.853Z,12.00
2023-04-03T16:15:40.165Z,12.00
2023-04-03T16:18:11.285Z,12.10
2023-04-03T16:20:40.544Z,12.10
2023-04-03T16:23:11.463Z,12.10
2023-04-03T16:25:41.111Z,12.00
2023-04-03T16:28:10.378Z,12.00
2023-04-03T16:30:39.507Z,12.00
2023-04-03T16:33:08.962Z,11.90
2023-04-03T16:35:38.173Z,11.90
2023-04-03T16:38:07.832Z,11.90
2023-04-03T16:40:38.422Z,11.90
2023-04-03T16:43:07.739Z,11.80
2023-04-03T16:45:37.193Z,11.80
2023-04-03T16:48:07.189Z,11.90
2023-04-03T16:50:36.855Z,11.90
2023-04-03T16:53:09.277Z,11.90
2023-04-03T16:55:40.702Z,11.80
2023-04-03T16:58:10.538Z,11.90
2023-04-03T17:00:39.794Z,11.90
2023-04-03T17:03:10.254Z,11.90
2023-04-03T17:05:39.669Z,11.90
2023-04-03T17:08:08.851Z,11.90
2023-04-03T17:10:40.408Z,11.90
2023-04-03T17:13:09.796Z,11.90
2023-04-03T17:15:39.281Z,11.80
2023-04-03T17:18:09.854Z,11.80
2023-04-03T17:20:39.386Z,11.80
2023-04-03T17:23:11.131Z,11.70
2023-04-03T17:25:41.783Z,11.60
2023-04-03T17:28:11.597Z,11.70
2023-04-03T17:30:41.451Z,11.60
2023-04-03T17:33:10.683Z,11.60
2023-04-03T17:35:40.137Z,11.60
2023-04-03T17:38:09.327Z,11.60
2023-04-03T17:40:38.352Z,11.60
2023-04-03T17:43:08.728Z,11.60
2023-04-03T17:45:38.275Z,11.50
2023-04-03T17:48:08.007Z,11.60
2023-04-03T17:50:38.957Z,11.50
2023-04-03T17:53:08.024Z,11.50
2023-04-03T17:55:39.566Z,11.50
2023-04-03T17:58:11.457Z,11.40
2023-04-03T18:00:40.713Z,11.40
2023-04-03T18:03:10.024Z,11.40
2023-04-03T18:05:39.754Z,11.40
2023-04-03T18:08:09.351Z,11.40
2023-04-03T18:10:38.945Z,11.30
2023-04-03T18:13:10.808Z,11.30
2023-04-03T18:15:45.813Z,11.30
2023-04-03T18:18:16.134Z,11.30
2023-04-03T18:20:45.409Z,11.30
2023-04-03T18:23:14.522Z,11.30
2023-04-03T18:25:43.769Z,11.30
2023-04-03T18:28:14.494Z,11.30
2023-04-03T18:30:44.131Z,11.30
2023-04-03T18:33:13.263Z,11.20
2023-04-03T18:35:42.599Z,11.20
2023-04-03T18:38:11.829Z,11.20
2023-04-03T18:40:42.718Z,11.20
2023-04-03T18:43:14.614Z,11.20
2023-04-03T18:45:43.945Z,11.10
2023-04-03T18:48:13.276Z,11.10
2023-04-03T18:50:43.805Z,11.10
2023-04-03T18:53:13.233Z,11.00
2023-04-03T18:55:45.565Z,11.00
2023-04-03T18:58:15.938Z,11.00
2023-04-03T19:00:45.124Z,11.00
2023-04-03T19:03:14.891Z,10.90
2023-04-03T19:05:44.534Z,10.90
2023-04-03T19:08:14.095Z,10.90
2023-04-03T19:10:43.211Z,10.90
2023-04-03T19:13:12.232Z,10.90
2023-04-03T19:15:42.659Z,10.80
2023-04-03T19:18:11.913Z,10.80
2023-04-03T19:20:41.197Z,10.90
2023-04-03T19:23:10.324Z,10.80
2023-04-03T19:25:39.877Z,10.80
2023-04-03T19:28:08.914Z,10.80
2023-04-03T19:30:39.395Z,10.90
2023-04-03T19:33:10.164Z,10.80
2023-04-03T19:35:42.156Z,10.80
2023-04-03T19:38:11.399Z,10.80
2023-04-03T19:40:43.850Z,10.80
2023-04-03T19:43:14.994Z,10.80
2023-04-03T19:45:46.045Z,10.70
2023-04-03T19:48:16.837Z,10.70
2023-04-03T19:50:46.013Z,10.70
2023-04-03T19:53:19.434Z,10.70
2023-04-03T19:55:48.858Z,10.60
2023-04-03T19:58:18.092Z,10.60
2023-04-03T20:00:47.443Z,10.60
2023-04-03T20:03:18.437Z,10.60
2023-04-03T20:05:47.689Z,10.60
2023-04-03T20:08:20.015Z,10.50
2023-04-03T20:10:49.134Z,10.50
2023-04-03T20:13:18.157Z,10.50
2023-04-03T20:15:47.397Z,10.50
2023-04-03T20:18:19.558Z,10.50
2023-04-03T20:20:55.136Z,10.50
2023-04-03T20:23:24.949Z,10.50
2023-04-03T20:26:08.564Z,10.40
2023-04-03T20:28:39.129Z,10.40
2023-04-03T20:31:10.084Z,10.40
2023-04-03T20:33:40.738Z,10.40
2023-04-03T20:36:10.042Z,10.40
2023-04-03T20:38:39.440Z,10.40
2023-04-03T20:41:09.344Z,10.40
2023-04-03T20:43:40.074Z,10.30
2023-04-03T20:46:09.476Z,10.30
2023-04-03T20:48:40.279Z,10.30
2023-04-03T20:51:13.214Z,10.30
2023-04-03T20:53:43.124Z,10.30
2023-04-03T20:56:12.702Z,10.30
2023-04-03T20:58:44.087Z,10.20
2023-04-03T21:01:29.449Z,10.20
2023-04-03T21:04:06.083Z,10.10
2023-04-03T21:07:12.568Z,10.10
2023-04-03T21:10:19.495Z,10.10
2023-04-03T21:13:26.720Z,10.10
2023-04-03T21:15:56.295Z,10.00
2023-04-03T21:19:02.100Z,10.00
2023-04-03T21:21:36.421Z,10.00
2023-04-03T21:24:10.096Z,9.90
2023-04-03T21:26:40.588Z,9.90
2023-04-03T21:29:10.025Z,9.90
2023-04-03T21:31:50.644Z,9.90
2023-04-03T21:34:26.048Z,9.90
2023-04-03T21:36:56.280Z,9.90
2023-04-03T21:39:25.463Z,9.90
2023-04-03T21:41:54.501Z,9.90
2023-04-03T21:44:24.044Z,9.90
2023-04-03T21:46:54.890Z,9.90
2023-04-03T21:49:27.161Z,9.90
2023-04-03T21:51:56.153Z,9.90
2023-04-03T21:54:26.101Z,9.80
2023-04-03T21:56:57.582Z,9.80
2023-04-03T21:59:26.775Z,9.80
2023-04-03T22:01:56.090Z,9.80
2023-04-03T22:04:27.416Z,9.80
2023-04-03T22:06:57.457Z,9.80
2023-04-03T22:09:26.408Z,9.80
2023-04-03T22:11:57.178Z,9.80
2023-04-03T22:14:26.431Z,9.80
2023-04-03T22:16:57.574Z,9.70
2023-04-03T22:19:28.009Z,9.70
2023-04-03T22:21:57.301Z,9.70
2023-04-03T22:24:27.457Z,9.70
2023-04-03T22:26:56.506Z,9.70
2023-04-03T22:29:25.521Z,9.70
2023-04-03T22:31:54.621Z,9.70
2023-04-03T22:34:24.587Z,9.70
2023-04-03T22:36:54.987Z,9.70
2023-04-03T22:39:25.148Z,9.70
2023-04-03T22:41:54.176Z,9.70
2023-04-03T22:44:27.561Z,9.70
2023-04-03T22:46:58.827Z,9.60
2023-04-03T22:49:28.023Z,9.60
2023-04-03T22:51:58.438Z,9.60
2023-04-03T22:54:27.578Z,9.60
2023-04-03T22:56:56.637Z,9.60
2023-04-03T22:59:25.827Z,9.60
2023-04-03T23:01:55.028Z,9.60
2023-04-03T23:04:24.615Z,9.60
2023-04-03T23:06:54.046Z,9.60
2023-04-03T23:09:24.440Z,9.60
2023-04-03T23:11:53.422Z,9.50
2023-04-03T23:14:22.790Z,9.60
2023-04-03T23:16:51.799Z,9.60
2023-04-03T23:19:21.037Z,9.60
2023-04-03T23:21:50.033Z,9.50
2023-04-03T23:24:20.213Z,9.50
2023-04-03T23:26:50.627Z,9.50
2023-04-03T23:29:19.821Z,9.50
2023-04-03T23:31:48.982Z,9.50
2023-04-03T23:34:20.441Z,9.50
2023-04-03T23:36:49.531Z,9.50
2023-04-03T23:39:19.956Z,9.50
2023-04-03T23:41:50.675Z,9.50
2023-04-03T23:44:19.890Z,9.50
2023-04-03T23:46:48.971Z,9.50
2023-04-03T23:49:17.979Z,9.50
2023-04-03T23:51:47.443Z,9.50
2023-04-03T23:54:16.480Z,9.50
2023-04-03T23:56:45.524Z,9.50
2023-04-03T23:59:16.069Z,9.50
